Time;durP1;ratioP1;P1;durP2;ratioP2;P2;SDS_P1;SDS_P2;PMS_P1;PMS_P2;Temp;Humidity;BMP_temperature;BMP_pressure;BME280_temperature;BME280_humidity;BME280_pressure;Samples;Min_cycle;Max_cycle;Signal;HPM_P1;HPM_P2
2022/03/20 00:01:35;;;;;;;4.75;2.60;;;;;;;5.33;59.51;103589.69;5077812;28;20048;-81
2022/03/20 00:04:04;;;;;;;7.43;2.97;;;;;;;5.31;59.76;103591.28;5081818;28;20052;-82
2022/03/20 00:06:32;;;;;;;5.45;2.50;;;;;;;5.25;59.77;103580.38;5087232;28;20089;-79
2022/03/20 00:09:01;;;;;;;3.75;1.90;;;;;;;5.23;60.27;103589.78;5086436;28;20044;-81
2022/03/20 00:11:29;;;;;;;6.13;2.88;;;;;;;5.15;60.50;103589.19;5084570;28;20055;-80
2022/03/20 00:13:57;;;;;;;4.20;2.45;;;;;;;5.19;60.36;103588.66;5082028;28;20180;-82
2022/03/20 00:16:29;;;;;;;3.50;2.10;;;;;;;5.13;60.96;103579.47;5083103;28;20041;-81
2022/03/20 00:19:08;;;;;;;4.75;2.60;;;;;;;5.13;61.04;103580.38;5092558;28;20048;-73
2022/03/20 00:21:40;;;;;;;6.95;2.72;;;;;;;5.13;61.17;103579.47;5070562;28;20402;-74
2022/03/20 00:24:25;;;;;;;5.82;2.75;;;;;;;5.12;61.23;103573.34;5078675;28;20112;-74
2022/03/20 00:26:58;;;;;;;6.40;2.78;;;;;;;5.10;61.33;103574.00;5077334;28;20119;-73
2022/03/20 00:29:32;;;;;;;4.43;2.33;;;;;;;5.09;61.48;103567.00;5078786;28;20453;-72
2022/03/20 00:32:08;;;;;;;5.35;2.03;;;;;;;5.04;61.43;103569.22;5080273;28;20513;-72
2022/03/20 00:34:39;;;;;;;7.22;2.70;;;;;;;5.03;61.40;103567.41;5061816;28;20309;-72
2022/03/20 00:37:12;;;;;;;3.13;2.17;;;;;;;5.01;61.88;103565.50;5080085;28;20492;-72
2022/03/20 00:39:51;;;;;;;7.57;2.83;;;;;;;4.96;61.92;103567.72;5058460;28;20303;-72
2022/03/20 00:42:31;;;;;;;3.60;2.35;;;;;;;4.88;62.82;103553.19;5080457;28;20048;-73
2022/03/20 00:45:00;;;;;;;4.30;2.45;;;;;;;4.86;62.83;103552.19;5071383;28;20059;-73
2022/03/20 00:47:33;;;;;;;5.60;2.47;;;;;;;4.87;63.32;103544.50;5049076;28;20533;-73
2022/03/20 00:50:17;;;;;;;7.03;3.38;;;;;;;4.82;63.40;103548.41;5039992;28;20408;-73
2022/03/20 00:52:52;;;;;;;5.90;3.17;;;;;;;4.77;63.80;103541.03;5072935;28;20229;-73
2022/03/20 00:55:22;;;;;;;5.28;2.72;;;;;;;4.79;63.67;103548.19;5084289;28;20094;-81
2022/03/20 00:57:50;;;;;;;6.88;2.80;;;;;;;4.76;64.08;103547.94;5087368;28;20090;-81
2022/03/20 01:00:17;;;;;;;6.30;3.00;;;;;;;4.70;64.65;103544.84;5084450;28;20139;-80
2022/03/20 01:02:47;;;;;;;6.07;3.10;;;;;;;4.65;64.72;103535.78;5087802;28;20052;-80
2022/03/20 01:05:16;;;;;;;7.80;3.47;;;;;;;4.68;64.71;103533.41;5086632;28;20051;-81
2022/03/20 01:07:44;;;;;;;7.95;3.33;;;;;;;4.70;64.72;103530.94;5082640;28;20078;-81
2022/03/20 01:10:12;;;;;;;5.95;3.58;;;;;;;4.58;65.19;103523.97;5085462;28;20052;-84
2022/03/20 01:12:41;;;;;;;6.85;3.80;;;;;;;4.61;65.49;103528.50;5084177;28;20054;-81
2022/03/20 01:15:18;;;;;;;6.15;3.40;;;;;;;4.59;65.70;103522.28;5085103;28;20052;-73
2022/03/20 01:17:51;;;;;;;6.15;3.67;;;;;;;4.62;65.59;103512.13;5066939;28;20134;-82
2022/03/20 01:20:19;;;;;;;8.90;4.22;;;;;;;4.55;66.04;103504.63;5068071;28;20107;-81
2022/03/20 01:22:49;;;;;;;7.10;3.90;;;;;;;4.54;66.49;103501.13;5087895;28;20074;-81
2022/03/20 01:25:22;;;;;;;7.43;4.20;;;;;;;4.52;66.67;103499.19;5084392;28;20086;-80
2022/03/20 01:27:50;;;;;;;6.05;3.88;;;;;;;4.53;66.62;103493.19;5086745;28;20052;-80
2022/03/20 01:30:18;;;;;;;9.68;4.53;;;;;;;4.46;67.31;103486.59;5076459;28;20056;-81
2022/03/20 01:32:46;;;;;;;7.80;4.43;;;;;;;4.44;67.47;103482.06;5087316;28;20116;-81
2022/03/20 01:35:16;;;;;;;8.98;4.40;;;;;;;4.44;67.63;103482.06;5086357;28;20047;-81
2022/03/20 01:37:44;;;;;;;11.32;5.25;;;;;;;4.44;67.59;103471.69;5084435;28;20048;-80
2022/03/20 01:40:13;;;;;;;8.13;5.03;;;;;;;4.41;67.77;103474.94;5085825;28;20089;-81
2022/03/20 01:42:41;;;;;;;10.73;5.25;;;;;;;4.35;68.09;103477.03;5090954;28;20384;-78
2022/03/20 01:45:15;;;;;;;10.25;5.85;;;;;;;4.35;67.93;103470.94;5082262;28;20077;-81
2022/03/20 01:47:47;;;;;;;10.15;5.82;;;;;;;4.32;68.55;103465.50;5086366;28;20116;-81
2022/03/20 01:50:17;;;;;;;9.48;5.38;;;;;;;4.35;68.16;103455.34;5088308;28;20819;-79
2022/03/20 01:52:46;;;;;;;14.60;6.78;;;;;;;4.35;68.48;103456.25;5090190;28;20063;-81
2022/03/20 01:55:15;;;;;;;11.32;5.68;;;;;;;4.32;68.47;103455.09;5087939;28;20052;-82
2022/03/20 01:57:44;;;;;;;9.20;5.03;;;;;;;4.34;68.47;103445.75;5091010;28;20075;-82
2022/03/20 02:00:16;;;;;;;11.38;5.78;;;;;;;4.28;68.96;103448.75;5078946;28;20062;-83
2022/03/20 02:02:46;;;;;;;11.57;5.72;;;;;;;4.30;68.87;103444.59;5087596;28;20048;-73
2022/03/20 02:05:16;;;;;;;12.63;6.10;;;;;;;4.27;68.97;103436.56;5082723;28;20052;-82
2022/03/20 02:07:47;;;;;;;10.75;6.05;;;;;;;4.21;69.03;103431.78;5081963;28;20120;-73
2022/03/20 02:10:16;;;;;;;12.00;6.05;;;;;;;4.17;69.38;103434.91;5082687;28;20044;-82
2022/03/20 02:12:46;;;;;;;13.35;6.70;;;;;;;4.20;68.92;103435.16;5079611;28;20066;-76
2022/03/20 02:15:16;;;;;;;13.43;6.55;;;;;;;4.24;69.32;103431.09;5074500;28;20093;-73
2022/03/20 02:17:46;;;;;;;14.65;6.88;;;;;;;4.20;68.91;103419.56;5060944;28;20044;-73
2022/03/20 02:20:20;;;;;;;12.85;7.00;;;;;;;4.21;68.80;103423.97;5078029;28;20098;-75
2022/03/20 02:23:01;;;;;;;13.40;7.00;;;;;;;4.12;69.17;103417.19;5077914;28;20036;-73
2022/03/20 02:28:13;;;;;;;18.15;8.73;;;;;;;4.09;69.45;103402.25;5077077;28;20045;-74
2022/03/20 02:31:00;;;;;;;16.52;8.10;;;;;;;4.08;69.21;103402.13;5075960;28;20373;-73
2022/03/20 02:33:31;;;;;;;;;;;;;;;4.12;69.18;103391.19;5050843;28;20285;-73
2022/03/20 02:36:06;;;;;;;17.08;7.97;;;;;;;4.06;69.09;103394.22;5075642;28;19924;-73
2022/03/20 02:38:36;;;;;;;;;;;;;;;4.04;69.38;103393.19;5073278;28;20116;-79
2022/03/20 02:41:14;;;;;;;16.20;8.13;;;;;;;4.01;69.38;103382.56;5070283;28;19924;-73
2022/03/20 02:43:53;;;;;;;13.20;7.15;;;;;;;3.95;69.76;103382.06;5067889;28;20053;-73
2022/03/20 02:46:22;;;;;;;16.13;7.47;;;;;;;3.97;69.80;103383.09;5069623;28;20457;-73
2022/03/20 02:48:55;;;;;;;17.05;8.43;;;;;;;3.95;69.85;103382.06;5039490;28;20048;-73
2022/03/20 02:51:27;;;;;;;14.35;8.23;;;;;;;3.88;69.79;103383.25;5081436;28;20059;-81
2022/03/20 02:53:57;;;;;;;17.73;8.45;;;;;;;3.88;70.02;103377.16;5079771;28;20083;-79
2022/03/20 02:56:33;;;;;;;17.35;7.80;;;;;;;3.88;69.88;103369.38;5072530;28;20247;-73
2022/03/20 02:59:07;;;;;;;18.42;8.65;;;;;;;3.80;70.41;103362.66;5061424;28;20578;-81
2022/03/20 03:01:36;;;;;;;18.33;8.68;;;;;;;3.83;70.04;103362.91;5084522;28;20135;-82
2022/03/20 03:04:08;;;;;;;14.73;8.13;;;;;;;3.81;70.30;103362.78;5074958;28;20059;-75
2022/03/20 03:06:47;;;;;;;16.02;9.10;;;;;;;3.76;70.80;103365.78;5082918;28;20055;-81
2022/03/20 03:12:21;;;;;;;13.82;7.75;;;;;;;3.75;70.79;103351.00;5070331;28;20503;-73
2022/03/20 03:17:52;;;;;;;15.20;7.30;;;;;;;3.73;71.28;103344.78;5075272;28;20062;-72
2022/03/20 03:20:24;;;;;;;16.52;8.57;;;;;;;3.64;71.57;103344.94;5066269;28;20085;-72
2022/03/20 03:22:56;;;;;;;13.80;7.45;;;;;;;3.67;71.98;103344.28;5081593;28;20048;-73
2022/03/20 03:25:27;;;;;;;17.33;7.80;;;;;;;3.64;72.23;103344.03;5077618;28;20513;-83
2022/03/20 03:27:55;;;;;;;17.17;7.93;;;;;;;3.63;72.11;103347.41;5082846;28;20044;-80
2022/03/20 03:30:25;;;;;;;17.80;8.55;;;;;;;3.56;72.65;103343.41;5073188;28;20053;-82
2022/03/20 03:32:54;;;;;;;16.95;7.72;;;;;;;3.58;72.36;103344.44;5084029;28;20048;-80
2022/03/20 03:38:10;;;;;;;17.45;8.07;;;;;;;3.50;73.01;103348.09;5086132;28;20040;-83
2022/03/20 03:40:40;;;;;;;12.90;7.43;;;;;;;3.54;73.20;103337.19;5081042;28;20382;-83
2022/03/20 03:43:14;;;;;;;16.27;8.00;;;;;;;3.45;73.70;103329.56;5076433;28;20052;-73
2022/03/20 03:45:43;;;;;;;11.73;6.43;;;;;;;3.47;73.77;103327.09;5077380;28;20048;-81
2022/03/20 03:48:11;;;;;;;12.48;7.38;;;;;;;3.41;73.86;103324.91;5083073;28;20056;-82
2022/03/20 03:50:44;;;;;;;12.80;7.32;;;;;;;3.39;74.25;103320.38;5076733;28;20236;-73
2022/03/20 03:53:31;;;;;;;18.42;7.90;;;;;;;3.41;73.86;103313.63;5071379;28;20403;-74
2022/03/20 03:56:15;;;;;;;16.45;7.65;;;;;;;3.34;74.32;103317.41;5077844;28;20040;-73
2022/03/20 03:58:48;;;;;;;14.15;7.63;;;;;;;3.36;74.41;103302.88;5058742;28;20071;-74
2022/03/20 04:01:23;;;;;;;17.17;7.60;;;;;;;3.27;74.56;103303.03;5078909;28;20142;-73
2022/03/20 04:06:41;;;;;;;15.25;8.23;;;;;;;3.25;74.90;103301.09;5073531;28;20048;-72
2022/03/20 04:09:12;;;;;;;12.57;7.07;;;;;;;3.24;75.07;103294.09;5072492;28;20052;-72
2022/03/20 04:11:44;;;;;;;17.33;8.23;;;;;;;3.18;75.12;103273.75;5074530;28;20138;-80
2022/03/20 04:14:14;;;;;;;17.33;8.48;;;;;;;3.18;74.99;103265.06;5076258;28;20356;-72
2022/03/20 04:16:44;;;;;;;14.98;6.97;;;;;;;3.14;75.01;103265.59;5056752;28;20473;-72
2022/03/20 04:19:28;;;;;;;17.40;8.57;;;;;;;3.09;75.31;103270.44;5070896;28;20053;-72
2022/03/20 04:21:58;;;;;;;14.43;7.75;;;;;;;3.11;75.33;103255.91;5075579;28;20052;-72
2022/03/20 04:24:43;;;;;;;16.57;7.63;;;;;;;3.13;75.19;103253.41;5060493;28;20131;-73
2022/03/20 04:27:42;;;;;;;16.50;7.57;;;;;;;3.08;75.22;103254.75;5058394;28;20054;-72
2022/03/20 04:30:11;;;;;;;15.52;7.22;;;;;;;3.03;75.51;103250.88;5060954;28;20052;-73
2022/03/20 04:32:46;;;;;;;15.73;8.25;;;;;;;3.04;75.61;103247.50;5078573;28;20055;-73
2022/03/20 04:35:21;;;;;;;16.40;7.75;;;;;;;2.97;75.22;103255.56;5078502;28;20094;-73
2022/03/20 04:38:01;;;;;;;16.25;7.72;;;;;;;2.99;75.50;103248.81;5073564;28;20132;-73
2022/03/20 04:40:35;;;;;;;18.17;7.95;;;;;;;2.90;75.99;103252.47;5074695;28;20085;-73
2022/03/20 04:43:11;;;;;;;14.50;9.02;;;;;;;2.87;76.03;103254.78;5060412;28;20051;-73
2022/03/20 04:45:43;;;;;;;14.70;7.65;;;;;;;2.85;76.20;103251.16;5075329;28;20044;-73
2022/03/20 04:59:39;;;;;;;16.20;8.20;;;;;;;2.73;76.24;103223.34;5078286;28;20599;-72
2022/03/20 05:02:11;;;;;;;17.08;8.73;;;;;;;2.63;76.70;103227.75;5077352;28;20101;-72
2022/03/20 05:04:52;;;;;;;19.77;8.40;;;;;;;2.62;76.76;103225.94;5078401;28;20052;-73
2022/03/20 05:07:30;;;;;;;15.55;7.68;;;;;;;2.64;76.32;103218.28;5081269;28;20361;-72
2022/03/20 05:15:39;;;;;;;16.85;8.00;;;;;;;2.63;76.48;103213.91;5082198;28;20097;-80
2022/03/20 05:18:08;;;;;;;17.73;8.57;;;;;;;2.54;76.53;103206.25;5087447;28;20063;-84
2022/03/20 05:20:37;;;;;;;18.58;9.23;;;;;;;2.53;76.70;103204.44;5076893;28;20246;-81
2022/03/20 05:23:05;;;;;;;15.20;8.48;;;;;;;2.49;76.74;103206.66;5077469;28;20060;-80
2022/03/20 05:25:33;;;;;;;23.08;9.65;;;;;;;2.48;76.54;103187.63;5087420;28;20044;-80
2022/03/20 05:28:02;;;;;;;20.58;9.63;;;;;;;2.45;76.23;103183.88;5081201;28;20048;-80
2022/03/20 05:30:32;;;;;;;18.83;10.40;;;;;;;2.47;76.10;103182.31;5084056;28;20131;-81
2022/03/20 05:33:02;;;;;;;25.23;10.88;;;;;;;2.44;76.38;103176.88;5088336;28;20609;-82
2022/03/20 05:35:31;;;;;;;17.88;9.68;;;;;;;2.47;76.29;103174.53;5088294;28;20047;-81
2022/03/20 05:38:00;;;;;;;23.13;10.93;;;;;;;2.43;76.13;103168.19;5089590;28;20040;-81
2022/03/20 05:40:33;;;;;;;19.98;9.00;;;;;;;2.43;75.93;103160.44;5078908;28;20076;-73
2022/03/20 05:43:08;;;;;;;20.10;9.82;;;;;;;2.44;76.00;103154.47;5078398;28;20064;-73
2022/03/20 05:45:52;;;;;;;19.42;10.70;;;;;;;2.46;75.63;103159.78;5080269;28;20479;-73
2022/03/20 05:48:27;;;;;;;17.05;9.32;;;;;;;2.44;75.85;103164.84;5090115;28;20058;-80
2022/03/20 05:50:55;;;;;;;21.83;10.13;;;;;;;2.44;75.78;103169.09;5092660;28;20132;-81
2022/03/20 05:53:23;;;;;;;19.45;9.98;;;;;;;2.44;76.06;103166.53;5083745;28;20053;-81
2022/03/20 05:58:37;;;;;;;18.20;9.15;;;;;;;2.47;75.31;103162.50;5089045;28;20100;-81
2022/03/20 06:01:05;;;;;;;18.88;10.48;;;;;;;2.46;75.43;103157.19;5088035;28;20519;-81
2022/03/20 06:03:35;;;;;;;20.63;10.38;;;;;;;2.42;75.58;103145.66;5087723;28;20135;-81
2022/03/20 06:06:06;;;;;;;19.25;10.70;;;;;;;2.43;75.41;103137.13;5077289;28;20060;-82
2022/03/20 06:08:35;;;;;;;18.95;10.93;;;;;;;2.41;75.18;103137.78;5084229;28;20675;-81
2022/03/20 06:11:04;;;;;;;22.25;10.88;;;;;;;2.43;75.22;103134.53;5090723;28;20099;-82
2022/03/20 06:13:35;;;;;;;18.52;10.63;;;;;;;2.51;74.78;103142.94;5089268;28;20135;-80
2022/03/20 06:16:06;;;;;;;21.25;10.68;;;;;;;2.50;74.64;103126.50;5084043;28;20523;-82
2022/03/20 06:18:36;;;;;;;30.25;13.02;;;;;;;2.54;74.55;103133.72;5089634;28;20050;-81
2022/03/20 06:21:06;;;;;;;21.75;10.95;;;;;;;2.59;74.09;103126.34;5088261;28;20462;-80
2022/03/20 06:23:34;;;;;;;24.92;10.00;;;;;;;2.66;74.07;103128.66;5092646;28;20055;-81
2022/03/20 06:26:03;;;;;;;18.55;9.40;;;;;;;2.68;73.94;103134.84;5090951;28;20492;-81
2022/03/20 06:28:32;;;;;;;21.77;11.02;;;;;;;2.72;73.73;103134.34;5086634;28;20048;-81
2022/03/20 06:31:01;;;;;;;22.38;11.48;;;;;;;2.79;73.30;103122.78;5085918;28;20049;-81
2022/03/20 06:33:51;;;;;;;24.23;12.13;;;;;;;2.82;73.21;103128.22;5089354;28;20062;-82
2022/03/20 06:36:18;;;;;;;20.33;10.85;;;;;;;2.88;72.64;103127.03;5085333;28;20460;-81
2022/03/20 06:38:46;;;;;;;19.42;10.30;;;;;;;2.94;72.15;103131.78;5088422;28;20054;-81
2022/03/20 06:41:14;;;;;;;26.40;11.15;;;;;;;2.98;72.40;103128.66;5088559;28;20306;-81
2022/03/20 06:43:53;;;;;;;22.58;11.98;;;;;;;3.03;71.72;103126.44;5072197;28;20059;-73
2022/03/20 06:46:28;;;;;;;21.88;11.93;;;;;;;3.05;71.10;103120.59;5068783;28;20048;-72
2022/03/20 06:49:01;;;;;;;20.95;11.00;;;;;;;3.17;70.63;103118.94;5079219;28;20048;-74
2022/03/20 06:51:31;;;;;;;25.00;12.50;;;;;;;3.24;70.78;103109.97;5054223;28;20055;-72
2022/03/20 06:54:01;;;;;;;29.30;12.80;;;;;;;3.33;70.34;103109.78;5064275;28;20120;-72
2022/03/20 06:56:30;;;;;;;26.90;12.93;;;;;;;3.43;69.25;103104.53;5083298;28;20188;-80
2022/03/20 06:58:57;;;;;;;25.25;12.18;;;;;;;3.51;68.56;103103.44;5083836;28;20048;-79
2022/03/20 07:01:26;;;;;;;23.17;12.50;;;;;;;3.63;67.98;103099.19;5083171;28;20080;-80
2022/03/20 07:03:55;;;;;;;22.75;11.48;;;;;;;3.76;66.84;103096.75;5081206;28;20063;-80
2022/03/20 07:06:26;;;;;;;22.50;11.68;;;;;;;3.81;66.69;103100.59;5069184;28;20044;-80
2022/03/20 07:08:59;;;;;;;21.30;11.93;;;;;;;3.83;65.27;103093.84;5077958;28;20064;-80
2022/03/20 07:11:32;;;;;;;;;;;;;;;3.91;65.57;103099.63;5083683;28;20089;-80
2022/03/20 07:14:03;;;;;;;24.55;11.75;;;;;;;3.91;65.30;103095.34;5080601;28;20364;-79
2022/03/20 07:16:33;;;;;;;27.40;12.82;;;;;;;3.96;64.55;103098.28;5076575;28;20071;-82
2022/03/20 07:19:02;;;;;;;29.08;13.15;;;;;;;3.98;64.37;103095.78;5082293;28;20147;-79
2022/03/20 07:21:33;;;;;;;18.35;10.52;;;;;;;3.99;64.32;103085.53;5083426;28;20362;-81
2022/03/20 07:24:03;;;;;;;22.38;12.35;;;;;;;4.08;63.42;103086.22;5085407;28;20487;-81
2022/03/20 07:29:32;;;;;;;26.23;13.30;;;;;;;4.17;63.63;103071.28;5079715;28;20048;-81
2022/03/20 07:32:04;;;;;;;22.17;12.50;;;;;;;4.19;62.66;103063.63;5075402;28;20059;-73
2022/03/20 07:34:34;;;;;;;26.85;13.18;;;;;;;4.29;62.37;103060.91;5076453;28;20055;-73
2022/03/20 07:37:05;;;;;;;20.83;12.45;;;;;;;4.34;62.22;103058.66;5075105;28;20140;-73
2022/03/20 07:39:37;;;;;;;25.42;14.02;;;;;;;4.41;62.01;103043.63;5062346;28;20068;-73
2022/03/20 07:42:08;;;;;;;24.55;13.07;;;;;;;4.46;61.62;103050.06;5073462;28;20090;-73
2022/03/20 07:44:42;;;;;;;26.08;14.80;;;;;;;4.58;61.46;103048.34;5071826;28;20128;-73
2022/03/20 07:47:18;;;;;;;24.38;10.73;;;;;;;4.50;60.93;103041.69;5076177;28;20056;-73
2022/03/20 07:49:50;;;;;;;28.05;13.68;;;;;;;4.34;61.55;103038.78;5076844;28;20084;-73
2022/03/20 07:52:20;;;;;;;22.70;11.35;;;;;;;4.42;60.97;103031.53;5054560;28;20441;-73
2022/03/20 07:54:51;;;;;;;25.30;12.77;;;;;;;4.57;60.53;103020.56;5061638;28;20055;-81
2022/03/20 07:57:19;;;;;;;29.55;14.55;;;;;;;4.58;61.00;103024.97;5077511;28;20127;-80
2022/03/20 07:59:47;;;;;;;23.98;12.10;;;;;;;4.53;60.73;103028.03;5079458;28;20047;-81
2022/03/20 08:02:15;;;;;;;23.50;13.35;;;;;;;4.55;60.67;103021.25;5079573;28;20060;-81
2022/03/20 08:04:43;;;;;;;24.50;12.52;;;;;;;4.62;60.18;103018.28;5073097;28;20075;-81
2022/03/20 08:07:12;;;;;;;28.98;13.88;;;;;;;4.60;60.03;103004.28;5066586;28;20149;-81
2022/03/20 08:09:50;;;;;;;23.83;12.18;;;;;;;4.68;59.96;103010.03;5078149;28;20425;-73
2022/03/20 08:12:18;;;;;;;23.75;13.35;;;;;;;4.81;59.35;103010.13;5079547;28;20085;-73
2022/03/20 08:15:00;;;;;;;29.17;14.35;;;;;;;4.77;58.69;102998.59;5070828;28;20044;-80
2022/03/20 08:17:29;;;;;;;30.02;14.05;;;;;;;4.84;58.54;102999.94;5084676;28;20560;-80
2022/03/20 08:19:57;;;;;;;28.35;13.45;;;;;;;4.82;58.43;103002.44;5079251;28;20052;-81
2022/03/20 08:22:25;;;;;;;22.20;12.60;;;;;;;4.76;58.33;103004.59;5086547;28;20044;-81
2022/03/20 08:24:55;;;;;;;23.13;14.00;;;;;;;4.77;58.66;103011.59;5087216;28;20040;-82
2022/03/20 08:27:23;;;;;;;23.30;12.77;;;;;;;4.81;58.40;102997.13;5081485;28;20101;-81
2022/03/20 08:29:52;;;;;;;28.70;14.93;;;;;;;4.84;58.34;102995.63;5080458;28;20104;-81
2022/03/20 08:32:22;;;;;;;22.63;12.25;;;;;;;4.91;58.02;102984.88;5082474;28;20058;-79
2022/03/20 08:34:52;;;;;;;28.35;13.60;;;;;;;4.86;57.79;102991.44;5085701;28;20047;-80
2022/03/20 08:37:20;;;;;;;26.88;12.77;;;;;;;4.89;57.06;102996.88;5084565;28;20064;-81
2022/03/20 08:39:48;;;;;;;27.88;13.50;;;;;;;4.81;56.92;102982.41;5076827;28;20155;-73
2022/03/20 08:42:19;;;;;;;24.80;11.80;;;;;;;4.86;57.20;102991.44;5083980;28;20044;-79
2022/03/20 08:44:50;;;;;;;25.95;11.77;;;;;;;4.86;57.65;103007.06;5079431;28;20459;-80
2022/03/20 08:47:19;;;;;;;22.08;10.82;;;;;;;4.84;56.90;103002.53;5083787;28;20093;-81
2022/03/20 08:49:46;;;;;;;21.88;12.20;;;;;;;4.84;57.02;103000.84;5083409;28;20757;-80
2022/03/20 08:52:14;;;;;;;26.75;12.98;;;;;;;4.92;56.86;102977.97;5085534;28;20095;-80
2022/03/20 08:54:42;;;;;;;25.50;12.98;;;;;;;4.81;56.69;102971.13;5080251;28;20048;-80
2022/03/20 08:57:10;;;;;;;26.98;14.00;;;;;;;4.84;56.47;102969.63;5085458;28;20106;-81
2022/03/20 08:59:44;;;;;;;29.08;15.05;;;;;;;4.95;57.04;102969.50;5079749;28;20055;-73
2022/03/20 09:02:37;;;;;;;23.23;13.52;;;;;;;4.96;56.96;102976.50;5068085;28;20161;-73
2022/03/20 09:05:11;;;;;;;25.65;13.52;;;;;;;4.86;56.89;102975.84;5055593;28;20048;-73
2022/03/20 09:07:40;;;;;;;27.00;14.70;;;;;;;4.89;56.78;102965.66;5080693;28;20049;-73
2022/03/20 09:10:13;;;;;;;24.30;13.23;;;;;;;4.97;56.39;102967.91;5080666;28;20536;-72
2022/03/20 09:12:43;;;;;;;22.92;12.85;;;;;;;5.03;56.45;102955.31;5076077;28;20048;-73
2022/03/20 09:15:14;;;;;;;25.27;14.05;;;;;;;5.03;56.39;102957.91;5080245;28;20060;-81
2022/03/20 09:20:36;;;;;;;29.75;13.82;;;;;;;5.07;55.55;102959.94;5077019;28;20703;-73
2022/03/20 09:23:07;;;;;;;27.95;12.82;;;;;;;5.09;55.60;102958.34;5083453;28;20551;-80
2022/03/20 09:25:36;;;;;;;27.88;14.20;;;;;;;5.14;55.20;102956.97;5076580;28;20125;-72
2022/03/20 09:28:09;;;;;;;19.00;12.48;;;;;;;5.21;54.68;102960.06;5080000;28;20127;-81
2022/03/20 09:30:41;;;;;;;29.45;15.48;;;;;;;5.27;55.06;102959.56;5085154;28;20044;-80
2022/03/20 09:33:10;;;;;;;30.85;15.07;;;;;;;5.20;54.84;102960.00;5085699;28;20052;-79
2022/03/20 09:35:44;;;;;;;26.65;14.02;;;;;;;5.21;55.02;102961.75;5078295;28;20131;-72
2022/03/20 09:38:14;;;;;;;27.08;13.85;;;;;;;5.23;55.22;102962.75;5079002;28;20094;-73
2022/03/20 09:40:50;;;;;;;24.83;14.45;;;;;;;5.36;55.41;102957.59;5081873;28;20110;-72
2022/03/20 09:43:19;;;;;;;25.40;13.65;;;;;;;5.42;55.43;102960.63;5056594;28;20056;-80
2022/03/20 09:45:49;;;;;;;29.67;15.25;;;;;;;5.47;55.35;102961.84;5080615;28;20091;-78
2022/03/20 09:48:17;;;;;;;31.55;15.35;;;;;;;5.47;55.42;102956.63;5083065;28;20064;-80
2022/03/20 09:50:48;;;;;;;27.60;14.75;;;;;;;5.51;55.25;102955.13;5082676;28;20523;-72
2022/03/20 09:53:21;;;;;;;22.27;15.05;;;;;;;5.55;55.12;102960.66;5071826;28;20305;-72
2022/03/20 09:55:50;;;;;;;23.77;14.55;;;;;;;5.55;55.16;102963.25;5074218;28;20080;-79
2022/03/20 09:58:18;;;;;;;30.27;16.60;;;;;;;5.42;54.70;102955.41;5084269;28;20049;-73
2022/03/20 10:00:50;;;;;;;22.73;13.63;;;;;;;5.43;54.91;102962.44;5076712;28;20474;-73
2022/03/20 10:03:21;;;;;;;28.95;16.13;;;;;;;5.41;55.20;102964.03;5077291;28;20042;-73
2022/03/20 10:06:07;;;;;;;27.98;14.50;;;;;;;5.49;54.69;102990.56;5077836;28;20557;-80
2022/03/20 10:08:36;;;;;;;20.58;12.77;;;;;;;5.30;56.75;102974.50;5081998;28;20089;-81
2022/03/20 10:11:14;;;;;;;27.70;16.05;;;;;;;5.08;58.04;102966.94;5082267;28;20625;-80
2022/03/20 10:14:11;;;;;;;34.67;18.02;;;;;;;4.91;60.45;102974.47;5083536;28;20579;-80
2022/03/20 10:16:43;;;;;;;29.95;16.23;;;;;;;4.95;60.19;102959.09;5083769;28;20044;-80
2022/03/20 10:19:26;;;;;;;32.60;17.25;;;;;;;4.88;61.22;102957.75;5082360;28;20479;-81
2022/03/20 10:21:57;;;;;;;29.75;17.25;;;;;;;4.62;62.10;102942.03;5084376;28;20355;-80
2022/03/20 10:24:26;;;;;;;34.22;18.05;;;;;;;4.60;62.78;102944.50;5075279;28;20056;-72
2022/03/20 10:27:13;;;;;;;31.42;17.55;;;;;;;4.71;64.46;102930.56;5076683;28;20492;-72
2022/03/20 10:29:51;;;;;;;35.58;18.80;;;;;;;4.79;65.04;102925.91;5077753;28;20128;-72
2022/03/20 10:32:21;;;;;;;37.53;17.50;;;;;;;5.01;65.47;102920.50;5071800;28;20052;-80
2022/03/20 10:34:51;;;;;;;30.25;16.85;;;;;;;5.08;64.07;102909.72;5082906;28;20078;-78
2022/03/20 10:37:22;;;;;;;34.78;18.05;;;;;;;5.15;64.66;102902.44;5083791;28;20055;-72
2022/03/20 10:40:08;;;;;;;33.42;17.90;;;;;;;5.73;65.27;102890.69;5072013;28;20083;-73
2022/03/20 10:42:36;;;;;;;32.08;16.05;;;;;;;5.77;63.20;102870.97;5075142;28;20415;-72
2022/03/20 10:45:07;;;;;;;32.55;16.88;;;;;;;5.69;60.81;102866.94;5062729;28;20053;-73
2022/03/20 10:47:37;;;;;;;34.03;18.17;;;;;;;5.80;59.31;102859.03;5067311;28;20052;-73
2022/03/20 10:50:10;;;;;;;31.05;17.45;;;;;;;5.95;60.77;102874.78;5079372;28;20333;-73
2022/03/20 10:52:39;;;;;;;29.95;18.65;;;;;;;5.92;61.13;102873.69;5075824;28;20110;-73
2022/03/20 10:55:09;;;;;;;33.47;19.27;;;;;;;5.97;60.84;102885.31;5076232;28;20084;-73
2022/03/20 10:57:39;;;;;;;35.75;18.15;;;;;;;6.05;61.45;102890.19;5061943;28;20083;-73
2022/03/20 11:00:13;;;;;;;33.72;18.90;;;;;;;5.98;62.41;102893.22;5074389;28;20056;-73
2022/03/20 11:02:44;;;;;;;35.92;17.65;;;;;;;5.90;62.28;102889.22;5060594;28;20051;-73
2022/03/20 11:05:14;;;;;;;33.35;19.10;;;;;;;6.11;62.69;102894.91;5067251;28;20052;-73
2022/03/20 11:07:46;;;;;;;36.17;18.20;;;;;;;6.03;61.43;102886.59;5070827;28;20085;-73
2022/03/20 11:10:17;;;;;;;36.97;18.33;;;;;;;6.06;61.65;102883.28;5043672;28;20056;-73
2022/03/20 11:12:48;;;;;;;31.52;17.70;;;;;;;6.06;60.52;102891.09;5075948;28;20118;-73
2022/03/20 11:15:17;;;;;;;33.25;18.60;;;;;;;5.92;58.69;102885.00;5075679;28;20087;-74
2022/03/20 11:17:51;;;;;;;33.03;17.35;;;;;;;6.10;59.51;102875.75;5062791;28;20580;-73
2022/03/20 11:20:24;;;;;;;34.72;17.73;;;;;;;6.24;58.90;102887.94;5076814;28;20075;-73
2022/03/20 11:22:59;;;;;;;33.67;18.25;;;;;;;6.05;58.59;102892.81;5074291;28;20506;-73
2022/03/20 11:25:30;;;;;;;33.20;17.02;;;;;;;6.37;58.25;102883.50;5061571;28;20048;-73
2022/03/20 11:28:03;;;;;;;34.28;17.55;;;;;;;6.27;57.03;102888.94;5078782;28;20078;-74
2022/03/20 11:30:35;;;;;;;30.73;17.98;;;;;;;6.54;56.72;102880.22;5073029;28;20047;-73
2022/03/20 11:33:09;;;;;;;36.53;19.00;;;;;;;6.90;56.66;102876.38;5074444;28;20124;-73
2022/03/20 11:35:40;;;;;;;35.75;18.85;;;;;;;7.21;55.15;102874.78;5079174;28;20039;-81
2022/03/20 11:38:21;;;;;;;29.45;16.92;;;;;;;7.51;53.91;102873.03;5078933;28;20326;-80
2022/03/20 11:41:13;;;;;;;36.15;19.77;;;;;;;7.46;52.93;102865.75;5075653;28;20501;-80
2022/03/20 11:43:44;;;;;;;32.13;17.95;;;;;;;7.65;52.42;102868.63;5073200;28;20051;-80
2022/03/20 11:46:28;;;;;;;36.45;19.48;;;;;;;7.84;49.39;102862.72;5078653;28;20052;-74
2022/03/20 11:49:23;;;;;;;35.63;20.42;;;;;;;8.16;49.39;102856.69;5077439;28;20048;-73
2022/03/20 11:52:02;;;;;;;30.95;18.05;;;;;;;8.37;48.48;102856.97;5058571;28;20504;-74
2022/03/20 11:54:31;;;;;;;31.13;16.60;;;;;;;8.21;46.94;102857.84;5075653;28;20638;-74
2022/03/20 11:57:00;;;;;;;24.70;16.15;;;;;;;8.03;47.81;102857.72;5077902;28;20052;-74
2022/03/20 11:59:48;;;;;;;34.42;17.48;;;;;;;8.00;48.76;102860.16;5081483;28;20098;-81
2022/03/20 12:02:28;;;;;;;27.45;17.00;;;;;;;7.86;49.33;102861.09;5082593;28;20127;-81
2022/03/20 12:05:19;;;;;;;32.17;18.88;;;;;;;7.69;51.27;102875.81;5075778;28;20052;-74
2022/03/20 12:07:57;;;;;;;28.17;16.27;;;;;;;8.04;52.00;102871.69;5073063;28;20056;-81
2022/03/20 12:10:35;;;;;;;33.38;18.52;;;;;;;8.00;52.39;102865.38;5079573;28;20056;-79
2022/03/20 12:13:18;;;;;;;35.17;20.02;;;;;;;7.67;54.41;102872.22;5080099;28;20055;-74
2022/03/20 12:15:47;;;;;;;33.70;18.73;;;;;;;7.33;55.96;102882.41;5078874;28;20048;-80
2022/03/20 12:18:16;;;;;;;34.78;19.95;;;;;;;7.16;56.96;102878.84;5079407;28;20043;-82
2022/03/20 12:21:02;;;;;;;34.30;20.08;;;;;;;7.32;57.22;102862.34;5082107;28;20483;-82
2022/03/20 12:23:43;;;;;;;40.40;21.60;;;;;;;7.39;57.11;102855.75;5059251;28;20052;-73
2022/03/20 12:26:33;;;;;;;37.33;20.83;;;;;;;7.65;56.60;102857.28;5076933;28;20075;-81